sensor_id;sensor_type;location;lat;lon;timestamp;P1;durP1;ratioP1;P2;durP2;ratioP2
22939;SDS011;11636;52.086;5.090;2023-07-29T00:02:13;1.52;;;0.60;;
22939;SDS011;11636;52.086;5.090;2023-07-29T00:05:08;2.10;;;0.70;;
22939;SDS011;11636;52.086;5.090;2023-07-29T00:07:55;3.13;;;1.15;;
22939;SDS011;11636;52.086;5.090;2023-07-29T00:10:49;2.05;;;0.80;;
22939;SDS011;11636;52.086;5.090;2023-07-29T00:13:42;1.77;;;0.80;;
22939;SDS011;11636;52.086;5.090;2023-07-29T00:16:30;1.85;;;0.60;;
22939;SDS011;11636;52.086;5.090;2023-07-29T00:19:25;1.88;;;0.70;;
22939;SDS011;11636;52.086;5.090;2023-07-29T00:22:13;2.58;;;0.70;;
22939;SDS011;11636;52.086;5.090;2023-07-29T00:25:07;2.45;;;0.80;;
22939;SDS011;11636;52.086;5.090;2023-07-29T00:27:55;2.20;;;0.95;;
22939;SDS011;11636;52.086;5.090;2023-07-29T00:30:49;4.40;;;1.70;;
22939;SDS011;11636;52.086;5.090;2023-07-29T00:33:36;2.60;;;1.08;;
22939;SDS011;11636;52.086;5.090;2023-07-29T00:36:30;2.55;;;1.00;;
22939;SDS011;11636;52.086;5.090;2023-07-29T00:39:24;2.53;;;0.98;;
22939;SDS011;11636;52.086;5.090;2023-07-29T00:42:11;3.08;;;1.20;;
22939;SDS011;11636;52.086;5.090;2023-07-29T00:45:05;2.10;;;1.10;;
22939;SDS011;11636;52.086;5.090;2023-07-29T00:47:54;4.15;;;1.70;;
22939;SDS011;11636;52.086;5.090;2023-07-29T00:50:48;3.65;;;1.38;;
22939;SDS011;11636;52.086;5.090;2023-07-29T00:53:36;3.95;;;1.70;;
22939;SDS011;11636;52.086;5.090;2023-07-29T00:56:30;2.22;;;1.20;;
22939;SDS011;11636;52.086;5.090;2023-07-29T00:59:24;3.60;;;1.05;;
22939;SDS011;11636;52.086;5.090;2023-07-29T01:02:12;5.35;;;2.35;;
22939;SDS011;11636;52.086;5.090;2023-07-29T01:05:06;3.10;;;1.60;;
22939;SDS011;11636;52.086;5.090;2023-07-29T01:07:56;4.53;;;2.17;;
22939;SDS011;11636;52.086;5.090;2023-07-29T01:17:47;5.60;;;2.63;;
22939;SDS011;11636;52.086;5.090;2023-07-29T01:20:45;6.88;;;2.90;;
22939;SDS011;11636;52.086;5.090;2023-07-29T01:23:35;4.13;;;2.47;;
22939;SDS011;11636;52.086;5.090;2023-07-29T01:26:29;4.97;;;2.63;;
22939;SDS011;11636;52.086;5.090;2023-07-29T01:29:16;6.63;;;3.20;;
22939;SDS011;11636;52.086;5.090;2023-07-29T01:32:11;4.32;;;2.40;;
22939;SDS011;11636;52.086;5.090;2023-07-29T01:35:15;4.78;;;2.80;;
22939;SDS011;11636;52.086;5.090;2023-07-29T01:38:29;5.28;;;2.70;;
22939;SDS011;11636;52.086;5.090;2023-07-29T01:41:28;7.00;;;2.47;;
22939;SDS011;11636;52.086;5.090;2023-07-29T01:44:15;4.00;;;2.17;;
22939;SDS011;11636;52.086;5.090;2023-07-29T01:47:10;7.20;;;3.10;;
22939;SDS011;11636;52.086;5.090;2023-07-29T01:49:58;6.63;;;3.53;;
22939;SDS011;11636;52.086;5.090;2023-07-29T01:52:52;8.40;;;3.80;;
22939;SDS011;11636;52.086;5.090;2023-07-29T01:55:46;8.90;;;4.57;;
22939;SDS011;11636;52.086;5.090;2023-07-29T01:58:40;7.32;;;3.47;;
22939;SDS011;11636;52.086;5.090;2023-07-29T02:01:40;6.10;;;3.60;;
22939;SDS011;11636;52.086;5.090;2023-07-29T02:04:27;6.65;;;3.20;;
22939;SDS011;11636;52.086;5.090;2023-07-29T02:07:21;9.85;;;4.70;;
22939;SDS011;11636;52.086;5.090;2023-07-29T02:10:08;8.35;;;4.15;;
22939;SDS011;11636;52.086;5.090;2023-07-29T02:13:02;7.88;;;4.70;;
22939;SDS011;11636;52.086;5.090;2023-07-29T02:15:50;5.53;;;3.50;;
22939;SDS011;11636;52.086;5.090;2023-07-29T02:18:44;6.93;;;3.55;;
22939;SDS011;11636;52.086;5.090;2023-07-29T02:21:31;7.35;;;4.40;;
22939;SDS011;11636;52.086;5.090;2023-07-29T02:24:25;7.05;;;3.88;;
22939;SDS011;11636;52.086;5.090;2023-07-29T02:27:19;7.40;;;3.15;;
22939;SDS011;11636;52.086;5.090;2023-07-29T02:30:13;6.68;;;4.18;;
22939;SDS011;11636;52.086;5.090;2023-07-29T02:33:07;7.50;;;3.60;;
22939;SDS011;11636;52.086;5.090;2023-07-29T02:35:54;6.43;;;3.33;;
22939;SDS011;11636;52.086;5.090;2023-07-29T02:38:48;5.20;;;3.08;;
22939;SDS011;11636;52.086;5.090;2023-07-29T02:41:35;7.68;;;3.65;;
22939;SDS011;11636;52.086;5.090;2023-07-29T02:44:29;8.57;;;3.83;;
22939;SDS011;11636;52.086;5.090;2023-07-29T02:47:16;6.90;;;3.55;;
22939;SDS011;11636;52.086;5.090;2023-07-29T02:50:10;4.22;;;2.40;;
22939;SDS011;11636;52.086;5.090;2023-07-29T02:52:57;3.88;;;2.45;;
22939;SDS011;11636;52.086;5.090;2023-07-29T02:55:51;3.88;;;2.42;;
22939;SDS011;11636;52.086;5.090;2023-07-29T02:58:38;4.25;;;1.98;;
22939;SDS011;11636;52.086;5.090;2023-07-29T03:01:33;3.45;;;2.08;;
22939;SDS011;11636;52.086;5.090;2023-07-29T03:04:20;3.22;;;1.83;;
22939;SDS011;11636;52.086;5.090;2023-07-29T03:07:14;4.55;;;1.88;;
22939;SDS011;11636;52.086;5.090;2023-07-29T03:10:08;3.47;;;1.75;;
22939;SDS011;11636;52.086;5.090;2023-07-29T03:12:57;3.78;;;1.90;;
22939;SDS011;11636;52.086;5.090;2023-07-29T03:15:51;3.15;;;1.77;;
22939;SDS011;11636;52.086;5.090;2023-07-29T03:18:38;5.78;;;2.30;;
22939;SDS011;11636;52.086;5.090;2023-07-29T03:21:32;4.10;;;1.98;;
22939;SDS011;11636;52.086;5.090;2023-07-29T03:24:19;3.58;;;1.92;;
22939;SDS011;11636;52.086;5.090;2023-07-29T03:27:13;3.63;;;1.75;;
22939;SDS011;11636;52.086;5.090;2023-07-29T03:30:03;3.88;;;1.77;;
22939;SDS011;11636;52.086;5.090;2023-07-29T03:32:57;3.88;;;1.92;;
22939;SDS011;11636;52.086;5.090;2023-07-29T03:35:51;4.88;;;2.00;;
22939;SDS011;11636;52.086;5.090;2023-07-29T03:38:39;3.33;;;1.90;;
22939;SDS011;11636;52.086;5.090;2023-07-29T03:41:33;3.28;;;2.08;;
22939;SDS011;11636;52.086;5.090;2023-07-29T03:44:20;3.53;;;1.70;;
22939;SDS011;11636;52.086;5.090;2023-07-29T03:47:14;4.82;;;2.42;;
22939;SDS011;11636;52.086;5.090;2023-07-29T03:50:01;5.55;;;2.35;;
22939;SDS011;11636;52.086;5.090;2023-07-29T03:52:55;3.70;;;2.25;;
22939;SDS011;11636;52.086;5.090;2023-07-29T03:55:43;4.53;;;2.50;;
22939;SDS011;11636;52.086;5.090;2023-07-29T03:58:37;6.50;;;2.70;;
22939;SDS011;11636;52.086;5.090;2023-07-29T04:01:31;4.40;;;2.50;;
22939;SDS011;11636;52.086;5.090;2023-07-29T04:04:25;4.38;;;2.28;;
22939;SDS011;11636;52.086;5.090;2023-07-29T04:07:19;3.75;;;1.88;;
22939;SDS011;11636;52.086;5.090;2023-07-29T04:10:06;4.07;;;2.30;;
22939;SDS011;11636;52.086;5.090;2023-07-29T04:13:00;5.38;;;2.70;;
22939;SDS011;11636;52.086;5.090;2023-07-29T04:15:48;3.50;;;2.15;;
22939;SDS011;11636;52.086;5.090;2023-07-29T04:18:41;5.95;;;2.80;;
22939;SDS011;11636;52.086;5.090;2023-07-29T04:21:28;4.03;;;2.15;;
22939;SDS011;11636;52.086;5.090;2023-07-29T04:24:22;4.30;;;2.20;;
22939;SDS011;11636;52.086;5.090;2023-07-29T04:27:16;5.07;;;2.95;;
22939;SDS011;11636;52.086;5.090;2023-07-29T04:30:03;5.47;;;2.58;;
22939;SDS011;11636;52.086;5.090;2023-07-29T04:32:57;7.45;;;2.63;;
22939;SDS011;11636;52.086;5.090;2023-07-29T04:35:44;6.05;;;3.00;;
22939;SDS011;11636;52.086;5.090;2023-07-29T04:38:38;4.78;;;2.67;;
22939;SDS011;11636;52.086;5.090;2023-07-29T04:41:25;3.85;;;2.70;;
22939;SDS011;11636;52.086;5.090;2023-07-29T04:44:19;4.25;;;2.88;;
22939;SDS011;11636;52.086;5.090;2023-07-29T04:47:06;6.93;;;3.40;;
22939;SDS011;11636;52.086;5.090;2023-07-29T04:50:00;4.50;;;2.80;;
22939;SDS011;11636;52.086;5.090;2023-07-29T04:52:54;4.85;;;3.00;;
22939;SDS011;11636;52.086;5.090;2023-07-29T04:55:48;4.30;;;2.60;;
22939;SDS011;11636;52.086;5.090;2023-07-29T04:58:42;5.38;;;3.15;;
22939;SDS011;11636;52.086;5.090;2023-07-29T05:01:29;6.40;;;3.38;;
22939;SDS011;11636;52.086;5.090;2023-07-29T05:04:23;6.03;;;3.03;;
22939;SDS011;11636;52.086;5.090;2023-07-29T05:07:10;4.95;;;3.28;;
22939;SDS011;11636;52.086;5.090;2023-07-29T05:10:04;4.35;;;2.83;;
22939;SDS011;11636;52.086;5.090;2023-07-29T05:12:58;6.25;;;3.10;;
22939;SDS011;11636;52.086;5.090;2023-07-29T05:15:52;5.75;;;3.17;;
22939;SDS011;11636;52.086;5.090;2023-07-29T05:18:47;5.80;;;3.33;;
22939;SDS011;11636;52.086;5.090;2023-07-29T05:21:40;4.35;;;2.50;;
22939;SDS011;11636;52.086;5.090;2023-07-29T05:24:34;5.90;;;3.63;;
22939;SDS011;11636;52.086;5.090;2023-07-29T05:27:21;5.85;;;3.58;;
22939;SDS011;11636;52.086;5.090;2023-07-29T05:30:15;5.90;;;3.45;;
22939;SDS011;11636;52.086;5.090;2023-07-29T05:33:03;7.15;;;3.58;;
22939;SDS011;11636;52.086;5.090;2023-07-29T05:35:57;6.22;;;3.67;;
22939;SDS011;11636;52.086;5.090;2023-07-29T05:38:52;7.75;;;4.47;;
22939;SDS011;11636;52.086;5.090;2023-07-29T05:41:45;5.93;;;3.38;;
22939;SDS011;11636;52.086;5.090;2023-07-29T05:44:40;6.30;;;3.65;;
22939;SDS011;11636;52.086;5.090;2023-07-29T05:47:34;7.55;;;4.18;;
22939;SDS011;11636;52.086;5.090;2023-07-29T05:50:22;7.90;;;5.38;;
22939;SDS011;11636;52.086;5.090;2023-07-29T05:53:15;5.57;;;3.58;;
22939;SDS011;11636;52.086;5.090;2023-07-29T05:56:09;5.07;;;3.13;;
22939;SDS011;11636;52.086;5.090;2023-07-29T05:58:57;3.63;;;2.35;;
22939;SDS011;11636;52.086;5.090;2023-07-29T06:01:50;8.75;;;4.93;;
22939;SDS011;11636;52.086;5.090;2023-07-29T06:04:44;6.90;;;3.63;;
22939;SDS011;11636;52.086;5.090;2023-07-29T06:07:31;4.60;;;2.95;;
22939;SDS011;11636;52.086;5.090;2023-07-29T06:10:26;9.00;;;5.45;;
22939;SDS011;11636;52.086;5.090;2023-07-29T06:13:13;9.20;;;5.22;;
22939;SDS011;11636;52.086;5.090;2023-07-29T06:16:07;8.15;;;4.80;;
22939;SDS011;11636;52.086;5.090;2023-07-29T06:19:01;10.27;;;4.78;;
22939;SDS011;11636;52.086;5.090;2023-07-29T06:21:55;10.00;;;5.95;;
22939;SDS011;11636;52.086;5.090;2023-07-29T06:24:49;8.35;;;4.82;;
22939;SDS011;11636;52.086;5.090;2023-07-29T06:27:37;8.30;;;4.38;;
22939;SDS011;11636;52.086;5.090;2023-07-29T06:30:31;5.88;;;3.33;;
22939;SDS011;11636;52.086;5.090;2023-07-29T06:33:25;6.72;;;3.50;;
22939;SDS011;11636;52.086;5.090;2023-07-29T06:36:19;6.15;;;4.43;;
22939;SDS011;11636;52.086;5.090;2023-07-29T06:39:06;10.30;;;5.75;;
22939;SDS011;11636;52.086;5.090;2023-07-29T06:42:07;7.55;;;4.25;;
22939;SDS011;11636;52.086;5.090;2023-07-29T06:44:54;9.77;;;5.60;;
22939;SDS011;11636;52.086;5.090;2023-07-29T06:47:48;10.43;;;5.65;;
22939;SDS011;11636;52.086;5.090;2023-07-29T06:50:42;11.45;;;5.40;;
22939;SDS011;11636;52.086;5.090;2023-07-29T06:53:29;9.10;;;5.13;;
22939;SDS011;11636;52.086;5.090;2023-07-29T06:56:23;7.22;;;4.45;;
22939;SDS011;11636;52.086;5.090;2023-07-29T06:59:10;6.55;;;3.72;;
22939;SDS011;11636;52.086;5.090;2023-07-29T07:02:05;9.02;;;5.15;;
22939;SDS011;11636;52.086;5.090;2023-07-29T07:04:53;10.82;;;4.97;;
22939;SDS011;11636;52.086;5.090;2023-07-29T07:07:46;6.43;;;3.78;;
22939;SDS011;11636;52.086;5.090;2023-07-29T07:10:33;9.73;;;5.25;;
22939;SDS011;11636;52.086;5.090;2023-07-29T07:13:27;5.72;;;3.70;;
22939;SDS011;11636;52.086;5.090;2023-07-29T07:16:21;8.13;;;4.78;;
22939;SDS011;11636;52.086;5.090;2023-07-29T07:19:15;7.90;;;4.90;;
22939;SDS011;11636;52.086;5.090;2023-07-29T07:22:09;10.63;;;5.35;;
22939;SDS011;11636;52.086;5.090;2023-07-29T07:24:56;6.18;;;4.50;;
22939;SDS011;11636;52.086;5.090;2023-07-29T07:27:54;8.35;;;3.92;;
22939;SDS011;11636;52.086;5.090;2023-07-29T07:30:41;5.63;;;3.60;;
22939;SDS011;11636;52.086;5.090;2023-07-29T07:33:35;6.63;;;4.22;;
22939;SDS011;11636;52.086;5.090;2023-07-29T07:36:22;5.80;;;3.67;;
22939;SDS011;11636;52.086;5.090;2023-07-29T07:39:16;7.55;;;5.20;;
22939;SDS011;11636;52.086;5.090;2023-07-29T07:42:04;7.32;;;5.18;;
22939;SDS011;11636;52.086;5.090;2023-07-29T07:44:57;8.57;;;5.50;;
22939;SDS011;11636;52.086;5.090;2023-07-29T07:47:55;6.22;;;4.88;;
22939;SDS011;11636;52.086;5.090;2023-07-29T07:50:49;6.00;;;3.92;;
22939;SDS011;11636;52.086;5.090;2023-07-29T07:53:43;6.93;;;4.07;;
22939;SDS011;11636;52.086;5.090;2023-07-29T07:56:30;6.15;;;3.75;;
22939;SDS011;11636;52.086;5.090;2023-07-29T07:59:25;6.45;;;3.45;;
22939;SDS011;11636;52.086;5.090;2023-07-29T08:02:18;6.22;;;3.20;;
22939;SDS011;11636;52.086;5.090;2023-07-29T08:05:07;5.93;;;3.03;;
22939;SDS011;11636;52.086;5.090;2023-07-29T08:08:01;10.13;;;4.10;;
22939;SDS011;11636;52.086;5.090;2023-07-29T08:10:49;5.07;;;3.10;;
22939;SDS011;11636;52.086;5.090;2023-07-29T08:13:42;7.95;;;3.65;;
22939;SDS011;11636;52.086;5.090;2023-07-29T08:16:30;6.00;;;3.10;;
22939;SDS011;11636;52.086;5.090;2023-07-29T08:19:24;7.05;;;3.50;;
22939;SDS011;11636;52.086;5.090;2023-07-29T08:22:11;6.25;;;3.28;;
22939;SDS011;11636;52.086;5.090;2023-07-29T08:25:04;4.47;;;2.90;;
22939;SDS011;11636;52.086;5.090;2023-07-29T08:27:58;4.85;;;3.20;;
22939;SDS011;11636;52.086;5.090;2023-07-29T08:30:46;6.97;;;3.50;;
22939;SDS011;11636;52.086;5.090;2023-07-29T08:33:39;5.90;;;3.33;;
22939;SDS011;11636;52.086;5.090;2023-07-29T08:36:26;6.47;;;3.10;;
22939;SDS011;11636;52.086;5.090;2023-07-29T08:39:21;8.77;;;3.78;;
22939;SDS011;11636;52.086;5.090;2023-07-29T08:42:08;6.15;;;3.00;;
22939;SDS011;11636;52.086;5.090;2023-07-29T08:45:06;5.90;;;3.70;;
22939;SDS011;11636;52.086;5.090;2023-07-29T08:48:06;8.27;;;5.05;;
22939;SDS011;11636;52.086;5.090;2023-07-29T08:51:03;8.80;;;4.57;;
22939;SDS011;11636;52.086;5.090;2023-07-29T08:54:00;5.95;;;4.10;;
22939;SDS011;11636;52.086;5.090;2023-07-29T08:56:48;7.15;;;4.22;;
22939;SDS011;11636;52.086;5.090;2023-07-29T08:59:42;5.63;;;3.80;;
22939;SDS011;11636;52.086;5.090;2023-07-29T09:02:31;6.60;;;4.30;;
22939;SDS011;11636;52.086;5.090;2023-07-29T09:05:25;6.63;;;4.05;;
22939;SDS011;11636;52.086;5.090;2023-07-29T09:08:19;6.25;;;3.63;;
22939;SDS011;11636;52.086;5.090;2023-07-29T09:11:15;4.55;;;2.92;;
22939;SDS011;11636;52.086;5.090;2023-07-29T09:14:05;6.18;;;3.03;;
22939;SDS011;11636;52.086;5.090;2023-07-29T09:16:59;6.32;;;3.25;;
22939;SDS011;11636;52.086;5.090;2023-07-29T09:19:53;6.13;;;3.45;;
22939;SDS011;11636;52.086;5.090;2023-07-29T09:22:41;8.77;;;4.40;;
22939;SDS011;11636;52.086;5.090;2023-07-29T09:25:37;6.35;;;4.30;;
22939;SDS011;11636;52.086;5.090;2023-07-29T09:28:25;8.45;;;4.65;;
22939;SDS011;11636;52.086;5.090;2023-07-29T09:31:21;6.90;;;4.60;;
22939;SDS011;11636;52.086;5.090;2023-07-29T09:34:10;8.60;;;6.00;;
22939;SDS011;11636;52.086;5.090;2023-07-29T09:37:12;8.43;;;5.35;;
22939;SDS011;11636;52.086;5.090;2023-07-29T09:40:03;6.05;;;4.60;;
22939;SDS011;11636;52.086;5.090;2023-07-29T09:42:57;7.22;;;5.47;;
22939;SDS011;11636;52.086;5.090;2023-07-29T09:45:52;8.50;;;6.78;;
22939;SDS011;11636;52.086;5.090;2023-07-29T09:48:46;7.57;;;5.72;;
22939;SDS011;11636;52.086;5.090;2023-07-29T09:51:40;8.02;;;5.30;;
22939;SDS011;11636;52.086;5.090;2023-07-29T09:54:28;8.38;;;4.97;;
22939;SDS011;11636;52.086;5.090;2023-07-29T09:57:23;8.48;;;4.95;;
22939;SDS011;11636;52.086;5.090;2023-07-29T10:00:11;5.68;;;3.97;;
22939;SDS011;11636;52.086;5.090;2023-07-29T10:03:06;7.97;;;4.63;;
22939;SDS011;11636;52.086;5.090;2023-07-29T10:05:54;7.63;;;4.80;;
22939;SDS011;11636;52.086;5.090;2023-07-29T10:08:49;8.02;;;4.88;;
22939;SDS011;11636;52.086;5.090;2023-07-29T10:11:37;10.27;;;5.93;;
22939;SDS011;11636;52.086;5.090;2023-07-29T10:14:32;9.82;;;6.32;;
22939;SDS011;11636;52.086;5.090;2023-07-29T10:17:26;9.60;;;6.00;;
22939;SDS011;11636;52.086;5.090;2023-07-29T10:20:13;8.00;;;6.35;;
22939;SDS011;11636;52.086;5.090;2023-07-29T10:23:07;11.90;;;7.15;;
22939;SDS011;11636;52.086;5.090;2023-07-29T10:26:10;8.90;;;5.43;;
22939;SDS011;11636;52.086;5.090;2023-07-29T10:29:07;7.30;;;5.72;;
22939;SDS011;11636;52.086;5.090;2023-07-29T10:32:09;9.43;;;6.30;;
22939;SDS011;11636;52.086;5.090;2023-07-29T10:34:58;8.50;;;5.18;;
22939;SDS011;11636;52.086;5.090;2023-07-29T10:37:52;6.30;;;5.05;;
22939;SDS011;11636;52.086;5.090;2023-07-29T10:40:46;6.80;;;4.45;;
22939;SDS011;11636;52.086;5.090;2023-07-29T10:46:31;5.15;;;3.55;;
22939;SDS011;11636;52.086;5.090;2023-07-29T10:49:28;5.63;;;3.38;;
22939;SDS011;11636;52.086;5.090;2023-07-29T10:55:33;5.40;;;3.00;;
22939;SDS011;11636;52.086;5.090;2023-07-29T10:58:32;4.15;;;2.50;;
22939;SDS011;11636;52.086;5.090;2023-07-29T11:01:29;3.33;;;1.90;;
22939;SDS011;11636;52.086;5.090;2023-07-29T11:04:25;3.55;;;1.90;;
22939;SDS011;11636;52.086;5.090;2023-07-29T11:10:08;2.60;;;1.10;;
22939;SDS011;11636;52.086;5.090;2023-07-29T11:13:02;2.03;;;0.90;;
22939;SDS011;11636;52.086;5.090;2023-07-29T11:15:49;2.50;;;1.00;;
22939;SDS011;11636;52.086;5.090;2023-07-29T11:18:44;2.50;;;1.30;;
22939;SDS011;11636;52.086;5.090;2023-07-29T11:21:34;3.25;;;1.13;;
22939;SDS011;11636;52.086;5.090;2023-07-29T11:24:29;3.22;;;1.20;;
22939;SDS011;11636;52.086;5.090;2023-07-29T11:27:16;2.30;;;1.02;;
22939;SDS011;11636;52.086;5.090;2023-07-29T11:30:11;3.60;;;1.30;;
22939;SDS011;11636;52.086;5.090;2023-07-29T11:32:59;4.13;;;1.60;;
22939;SDS011;11636;52.086;5.090;2023-07-29T11:35:53;3.08;;;1.60;;
22939;SDS011;11636;52.086;5.090;2023-07-29T11:38:48;4.07;;;2.40;;
22939;SDS011;11636;52.086;5.090;2023-07-29T11:41:35;4.93;;;2.65;;
22939;SDS011;11636;52.086;5.090;2023-07-29T11:44:29;4.20;;;2.17;;
22939;SDS011;11636;52.086;5.090;2023-07-29T11:47:17;3.35;;;1.85;;
22939;SDS011;11636;52.086;5.090;2023-07-29T11:50:11;4.97;;;2.58;;
22939;SDS011;11636;52.086;5.090;2023-07-29T11:53:00;5.60;;;2.90;;
22939;SDS011;11636;52.086;5.090;2023-07-29T11:55:55;4.22;;;2.55;;
22939;SDS011;11636;52.086;5.090;2023-07-29T11:58:42;5.00;;;2.38;;
22939;SDS011;11636;52.086;5.090;2023-07-29T12:01:36;3.28;;;2.00;;
22939;SDS011;11636;52.086;5.090;2023-07-29T12:04:25;3.92;;;1.80;;
22939;SDS011;11636;52.086;5.090;2023-07-29T12:07:20;8.73;;;2.67;;
22939;SDS011;11636;52.086;5.090;2023-07-29T12:10:07;6.35;;;2.50;;
22939;SDS011;11636;52.086;5.090;2023-07-29T12:13:02;4.53;;;2.10;;
22939;SDS011;11636;52.086;5.090;2023-07-29T12:16:02;3.10;;;2.03;;
22939;SDS011;11636;52.086;5.090;2023-07-29T12:18:50;4.50;;;2.38;;
22939;SDS011;11636;52.086;5.090;2023-07-29T12:21:44;3.92;;;2.30;;
22939;SDS011;11636;52.086;5.090;2023-07-29T12:24:32;3.67;;;2.30;;
22939;SDS011;11636;52.086;5.090;2023-07-29T12:27:27;3.65;;;2.10;;
22939;SDS011;11636;52.086;5.090;2023-07-29T12:30:19;4.05;;;2.40;;
22939;SDS011;11636;52.086;5.090;2023-07-29T12:33:30;3.92;;;2.42;;
22939;SDS011;11636;52.086;5.090;2023-07-29T12:36:18;3.08;;;1.77;;
22939;SDS011;11636;52.086;5.090;2023-07-29T12:39:22;4.53;;;2.50;;
22939;SDS011;11636;52.086;5.090;2023-07-29T12:42:26;4.93;;;2.20;;
22939;SDS011;11636;52.086;5.090;2023-07-29T12:45:20;3.53;;;2.35;;
22939;SDS011;11636;52.086;5.090;2023-07-29T12:48:19;3.97;;;2.30;;
22939;SDS011;11636;52.086;5.090;2023-07-29T12:51:06;4.20;;;2.55;;
22939;SDS011;11636;52.086;5.090;2023-07-29T12:54:00;3.50;;;2.00;;
22939;SDS011;11636;52.086;5.090;2023-07-29T12:56:47;4.55;;;2.50;;
22939;SDS011;11636;52.086;5.090;2023-07-29T12:59:41;3.70;;;2.35;;
22939;SDS011;11636;52.086;5.090;2023-07-29T13:02:35;3.50;;;2.13;;
22939;SDS011;11636;52.086;5.090;2023-07-29T13:05:22;3.15;;;2.15;;
22939;SDS011;11636;52.086;5.090;2023-07-29T13:08:16;4.32;;;2.35;;
22939;SDS011;11636;52.086;5.090;2023-07-29T13:11:03;4.25;;;2.47;;
22939;SDS011;11636;52.086;5.090;2023-07-29T13:13:57;4.10;;;2.80;;
22939;SDS011;11636;52.086;5.090;2023-07-29T13:16:44;3.90;;;2.38;;
22939;SDS011;11636;52.086;5.090;2023-07-29T13:19:38;4.00;;;2.60;;
22939;SDS011;11636;52.086;5.090;2023-07-29T13:22:25;4.47;;;2.45;;
22939;SDS011;11636;52.086;5.090;2023-07-29T13:25:20;3.78;;;2.20;;
22939;SDS011;11636;52.086;5.090;2023-07-29T13:28:11;4.47;;;2.47;;
22939;SDS011;11636;52.086;5.090;2023-07-29T13:31:06;3.80;;;2.05;;
22939;SDS011;11636;52.086;5.090;2023-07-29T13:34:00;4.60;;;2.33;;
22939;SDS011;11636;52.086;5.090;2023-07-29T13:36:47;3.30;;;1.90;;
22939;SDS011;11636;52.086;5.090;2023-07-29T13:39:41;4.03;;;2.33;;
22939;SDS011;11636;52.086;5.090;2023-07-29T13:42:28;3.63;;;2.28;;
22939;SDS011;11636;52.086;5.090;2023-07-29T13:45:22;3.88;;;2.30;;
22939;SDS011;11636;52.086;5.090;2023-07-29T13:48:09;3.92;;;1.80;;
22939;SDS011;11636;52.086;5.090;2023-07-29T13:51:03;3.25;;;1.63;;
22939;SDS011;11636;52.086;5.090;2023-07-29T13:53:50;4.97;;;1.90;;
22939;SDS011;11636;52.086;5.090;2023-07-29T13:56:44;3.72;;;1.90;;
22939;SDS011;11636;52.086;5.090;2023-07-29T13:59:38;3.58;;;1.92;;
22939;SDS011;11636;52.086;5.090;2023-07-29T14:02:25;3.10;;;1.63;;
22939;SDS011;11636;52.086;5.090;2023-07-29T14:05:24;4.68;;;1.52;;
22939;SDS011;11636;52.086;5.090;2023-07-29T14:08:11;4.85;;;1.30;;
22939;SDS011;11636;52.086;5.090;2023-07-29T14:11:05;3.10;;;1.40;;
22939;SDS011;11636;52.086;5.090;2023-07-29T14:13:59;2.85;;;1.45;;
22939;SDS011;11636;52.086;5.090;2023-07-29T14:16:46;2.90;;;1.08;;
22939;SDS011;11636;52.086;5.090;2023-07-29T14:19:40;3.50;;;1.40;;
22939;SDS011;11636;52.086;5.090;2023-07-29T14:22:27;2.50;;;0.98;;
22939;SDS011;11636;52.086;5.090;2023-07-29T14:25:21;2.72;;;1.08;;
22939;SDS011;11636;52.086;5.090;2023-07-29T14:28:15;3.55;;;0.98;;
22939;SDS011;11636;52.086;5.090;2023-07-29T14:31:09;4.20;;;1.20;;
22939;SDS011;11636;52.086;5.090;2023-07-29T14:33:57;7.03;;;1.52;;
22939;SDS011;11636;52.086;5.090;2023-07-29T14:36:51;4.20;;;1.20;;
22939;SDS011;11636;52.086;5.090;2023-07-29T14:39:38;5.05;;;1.20;;
22939;SDS011;11636;52.086;5.090;2023-07-29T14:42:32;4.60;;;1.10;;
22939;SDS011;11636;52.086;5.090;2023-07-29T14:45:26;2.42;;;0.98;;
22939;SDS011;11636;52.086;5.090;2023-07-29T14:48:20;4.88;;;1.20;;
22939;SDS011;11636;52.086;5.090;2023-07-29T14:51:14;4.68;;;1.30;;
22939;SDS011;11636;52.086;5.090;2023-07-29T14:54:01;3.05;;;1.02;;
22939;SDS011;11636;52.086;5.090;2023-07-29T14:56:55;3.95;;;1.30;;
22939;SDS011;11636;52.086;5.090;2023-07-29T14:59:49;3.13;;;1.10;;
22939;SDS011;11636;52.086;5.090;2023-07-29T15:02:36;2.58;;;1.10;;
22939;SDS011;11636;52.086;5.090;2023-07-29T15:05:30;5.10;;;1.20;;
22939;SDS011;11636;52.086;5.090;2023-07-29T15:08:17;5.93;;;1.90;;
22939;SDS011;11636;52.086;5.090;2023-07-29T15:11:11;3.78;;;1.75;;
22939;SDS011;11636;52.086;5.090;2023-07-29T15:13:59;19.88;;;15.32;;
22939;SDS011;11636;52.086;5.090;2023-07-29T15:16:53;5.60;;;3.25;;
22939;SDS011;11636;52.086;5.090;2023-07-29T15:19:40;3.40;;;1.73;;
22939;SDS011;11636;52.086;5.090;2023-07-29T15:22:34;3.22;;;1.23;;
22939;SDS011;11636;52.086;5.090;2023-07-29T15:25:28;3.75;;;1.50;;
22939;SDS011;11636;52.086;5.090;2023-07-29T15:28:15;4.38;;;1.73;;
22939;SDS011;11636;52.086;5.090;2023-07-29T15:31:09;5.30;;;1.90;;
22939;SDS011;11636;52.086;5.090;2023-07-29T15:33:59;3.85;;;1.85;;
22939;SDS011;11636;52.086;5.090;2023-07-29T15:36:52;3.03;;;1.50;;
22939;SDS011;11636;52.086;5.090;2023-07-29T15:39:39;3.05;;;1.30;;
22939;SDS011;11636;52.086;5.090;2023-07-29T15:42:33;3.75;;;1.58;;
22939;SDS011;11636;52.086;5.090;2023-07-29T15:45:27;3.40;;;1.55;;
22939;SDS011;11636;52.086;5.090;2023-07-29T15:48:14;3.35;;;1.60;;
22939;SDS011;11636;52.086;5.090;2023-07-29T15:51:08;3.97;;;1.38;;
22939;SDS011;11636;52.086;5.090;2023-07-29T15:54:02;4.13;;;1.70;;
22939;SDS011;11636;52.086;5.090;2023-07-29T15:56:56;3.92;;;1.63;;
22939;SDS011;11636;52.086;5.090;2023-07-29T15:59:43;3.55;;;1.60;;
22939;SDS011;11636;52.086;5.090;2023-07-29T16:02:37;3.47;;;1.50;;
22939;SDS011;11636;52.086;5.090;2023-07-29T16:05:31;2.50;;;1.00;;
22939;SDS011;11636;52.086;5.090;2023-07-29T16:08:25;2.90;;;1.50;;
22939;SDS011;11636;52.086;5.090;2023-07-29T16:11:12;11.13;;;2.75;;
22939;SDS011;11636;52.086;5.090;2023-07-29T16:14:06;8.57;;;3.40;;
22939;SDS011;11636;52.086;5.090;2023-07-29T16:17:00;9.20;;;3.60;;
22939;SDS011;11636;52.086;5.090;2023-07-29T16:19:54;5.25;;;2.30;;
22939;SDS011;11636;52.086;5.090;2023-07-29T16:22:53;4.25;;;2.38;;
22939;SDS011;11636;52.086;5.090;2023-07-29T16:25:47;6.00;;;2.58;;
22939;SDS011;11636;52.086;5.090;2023-07-29T16:28:41;4.25;;;1.88;;
22939;SDS011;11636;52.086;5.090;2023-07-29T16:31:29;3.53;;;1.50;;
22939;SDS011;11636;52.086;5.090;2023-07-29T16:34:23;3.80;;;1.70;;
22939;SDS011;11636;52.086;5.090;2023-07-29T16:37:17;3.78;;;1.60;;
22939;SDS011;11636;52.086;5.090;2023-07-29T16:40:11;3.42;;;1.77;;
22939;SDS011;11636;52.086;5.090;2023-07-29T16:42:59;4.70;;;2.00;;
22939;SDS011;11636;52.086;5.090;2023-07-29T16:45:53;7.53;;;2.40;;
22939;SDS011;11636;52.086;5.090;2023-07-29T16:48:40;4.03;;;2.58;;
22939;SDS011;11636;52.086;5.090;2023-07-29T16:51:34;4.10;;;2.08;;
22939;SDS011;11636;52.086;5.090;2023-07-29T16:54:28;4.32;;;2.10;;
22939;SDS011;11636;52.086;5.090;2023-07-29T16:57:16;4.60;;;2.67;;
22939;SDS011;11636;52.086;5.090;2023-07-29T17:00:09;4.90;;;2.08;;
22939;SDS011;11636;52.086;5.090;2023-07-29T17:03:03;4.00;;;2.28;;
22939;SDS011;11636;52.086;5.090;2023-07-29T17:05:50;5.38;;;2.70;;
22939;SDS011;11636;52.086;5.090;2023-07-29T17:08:48;5.18;;;2.70;;
22939;SDS011;11636;52.086;5.090;2023-07-29T17:11:35;4.18;;;2.35;;
22939;SDS011;11636;52.086;5.090;2023-07-29T17:14:29;6.03;;;2.60;;
22939;SDS011;11636;52.086;5.090;2023-07-29T17:17:24;4.80;;;2.90;;
22939;SDS011;11636;52.086;5.090;2023-07-29T17:20:24;4.88;;;2.40;;
22939;SDS011;11636;52.086;5.090;2023-07-29T17:23:11;3.38;;;1.80;;
22939;SDS011;11636;52.086;5.090;2023-07-29T17:26:05;5.32;;;2.25;;
22939;SDS011;11636;52.086;5.090;2023-07-29T17:29:01;6.45;;;1.73;;
22939;SDS011;11636;52.086;5.090;2023-07-29T17:31:48;7.05;;;2.00;;
22939;SDS011;11636;52.086;5.090;2023-07-29T17:34:42;5.68;;;1.90;;